createdAt,value
2023-04-18T00:03:33.719Z,8.48
2023-04-18T00:08:16.955Z,8.75
2023-04-18T00:12:42.996Z,8.70
2023-04-18T00:17:08.848Z,8.57
2023-04-18T00:21:34.434Z,8.73
2023-04-18T00:26:04.264Z,8.55
2023-04-18T00:30:34.314Z,8.43
2023-04-18T00:35:12.628Z,9.02
2023-04-18T00:39:38.305Z,8.43
2023-04-18T00:44:11.804Z,8.60
2023-04-18T00:48:36.109Z,9.32
2023-04-18T00:53:00.156Z,9.80
2023-04-18T00:57:26.220Z,10.30
2023-04-18T01:01:50.136Z,11.32
2023-04-18T01:06:14.315Z,11.10
2023-04-18T01:10:38.877Z,12.32
2023-04-18T01:15:04.811Z,11.10
2023-04-18T01:19:28.797Z,13.10
2023-04-18T01:23:53.994Z,13.10
2023-04-18T01:28:21.340Z,13.70
2023-04-18T01:32:46.524Z,14.15
2023-04-18T01:37:10.590Z,13.98
2023-04-18T01:41:34.425Z,13.60
2023-04-18T01:45:59.712Z,13.65
2023-04-18T01:50:25.350Z,14.65
2023-04-18T01:54:49.277Z,12.38
2023-04-18T01:59:13.366Z,12.10
2023-04-18T02:03:39.150Z,12.45
2023-04-18T02:08:03.252Z,13.85
2023-04-18T02:12:27.342Z,13.50
2023-04-18T02:16:51.397Z,12.60
2023-04-18T02:21:17.528Z,13.80
2023-04-18T02:25:41.424Z,12.43
2023-04-18T02:30:07.545Z,13.27
2023-04-18T02:34:32.520Z,14.20
2023-04-18T02:38:58.064Z,15.00
2023-04-18T02:43:21.989Z,14.05
2023-04-18T02:47:54.777Z,14.88
2023-04-18T02:52:20.400Z,13.73
2023-04-18T02:56:45.651Z,11.65
2023-04-18T03:01:19.401Z,13.32
2023-04-18T03:05:52.030Z,13.95
2023-04-18T03:10:16.797Z,12.90
2023-04-18T03:14:41.901Z,13.63
2023-04-18T03:19:05.837Z,14.00
2023-04-18T03:23:30.893Z,12.30
2023-04-18T03:27:56.375Z,13.60
2023-04-18T03:32:24.373Z,13.68
2023-04-18T03:36:48.525Z,12.87
2023-04-18T03:41:13.854Z,12.60
2023-04-18T03:45:39.204Z,12.82
2023-04-18T03:50:08.505Z,12.15
2023-04-18T03:54:32.466Z,12.00
2023-04-18T03:58:56.358Z,11.90
2023-04-18T04:03:21.056Z,12.70
2023-04-18T04:07:46.754Z,12.30
2023-04-18T04:12:10.944Z,11.95
2023-04-18T04:16:35.086Z,11.23
2023-04-18T04:21:01.427Z,11.50
2023-04-18T04:25:38.759Z,12.93
2023-04-18T04:30:13.222Z,12.50
2023-04-18T04:34:37.877Z,12.23
2023-04-18T04:39:05.359Z,11.37
2023-04-18T04:43:41.319Z,12.20
2023-04-18T04:48:07.125Z,11.77
2023-04-18T04:52:33.264Z,12.83
2023-04-18T04:56:57.622Z,11.40
2023-04-18T05:01:24.591Z,9.95
2023-04-18T05:05:49.199Z,10.80
2023-04-18T05:10:13.077Z,10.18
2023-04-18T05:14:37.067Z,10.02
2023-04-18T05:19:02.607Z,9.82
2023-04-18T05:23:26.901Z,9.30
2023-04-18T05:27:52.033Z,9.65
2023-04-18T05:32:16.051Z,9.63
2023-04-18T05:36:41.332Z,10.10
2023-04-18T05:41:05.193Z,9.35
2023-04-18T05:45:29.129Z,9.68
2023-04-18T05:49:52.977Z,9.53
2023-04-18T05:54:18.212Z,8.82
2023-04-18T05:58:42.163Z,8.50
2023-04-18T06:03:08.545Z,8.55
2023-04-18T06:07:36.186Z,8.47
2023-04-18T06:12:01.516Z,8.85
2023-04-18T06:16:25.486Z,8.02
2023-04-18T06:20:49.788Z,9.10
2023-04-18T06:25:13.818Z,9.45
2023-04-18T06:29:39.396Z,10.57
2023-04-18T06:34:03.563Z,10.60
2023-04-18T06:38:27.443Z,8.20
2023-04-18T06:42:51.580Z,9.68
2023-04-18T06:47:17.388Z,8.68
2023-04-18T06:51:41.389Z,7.97
2023-04-18T06:56:05.697Z,8.40
2023-04-18T07:00:29.973Z,8.90
2023-04-18T07:04:55.442Z,8.00
2023-04-18T07:09:21.050Z,9.07
2023-04-18T07:13:45.546Z,8.52
2023-04-18T07:18:09.438Z,8.10
2023-04-18T07:22:34.927Z,8.98
2023-04-18T07:26:58.882Z,7.60
2023-04-18T07:31:22.988Z,7.93
2023-04-18T07:35:46.986Z,7.47
2023-04-18T07:40:13.290Z,8.27
2023-04-18T07:44:37.452Z,7.78
2023-04-18T07:49:02.326Z,7.90
2023-04-18T07:53:26.376Z,7.10
2023-04-18T07:57:51.774Z,7.95
2023-04-18T08:02:16.356Z,7.90
2023-04-18T08:06:40.366Z,7.53
2023-04-18T08:11:04.291Z,7.25
2023-04-18T08:15:32.230Z,7.53
2023-04-18T08:19:56.156Z,6.87
2023-04-18T08:24:20.163Z,7.43
2023-04-18T08:28:46.320Z,7.28
2023-04-18T08:33:11.967Z,7.77
2023-04-18T08:37:36.288Z,6.78
2023-04-18T08:42:01.795Z,7.25
2023-04-18T08:46:26.238Z,7.70
2023-04-18T08:50:57.301Z,8.25
2023-04-18T08:55:24.578Z,7.35
2023-04-18T08:59:51.103Z,7.75
2023-04-18T09:04:34.371Z,7.53
2023-04-18T09:09:00.301Z,7.45
2023-04-18T09:13:40.268Z,8.30
2023-04-18T09:18:10.641Z,7.50
2023-04-18T09:22:50.290Z,8.35
2023-04-18T09:27:15.550Z,8.35
2023-04-18T09:31:57.357Z,8.23
2023-04-18T09:36:22.911Z,8.35
2023-04-18T09:40:47.098Z,8.40
2023-04-18T09:45:13.512Z,7.53
2023-04-18T09:49:37.377Z,8.70
2023-04-18T09:54:02.421Z,8.57
2023-04-18T09:58:27.028Z,8.50
2023-04-18T10:02:57.562Z,8.03
2023-04-18T10:07:22.678Z,8.40
2023-04-18T10:11:46.743Z,9.38
2023-04-18T10:16:11.172Z,8.90
2023-04-18T10:20:36.896Z,9.68
2023-04-18T10:25:00.998Z,7.80
2023-04-18T10:29:49.744Z,8.60
2023-04-18T10:34:17.507Z,8.50
2023-04-18T10:38:47.306Z,8.65
2023-04-18T10:43:13.351Z,8.63
2023-04-18T10:47:37.413Z,7.80
2023-04-18T10:52:03.568Z,8.68
2023-04-18T10:56:29.889Z,8.50
2023-04-18T11:00:54.716Z,10.13
2023-04-18T11:05:23.662Z,9.02
2023-04-18T11:09:57.749Z,8.70
2023-04-18T11:14:23.153Z,8.48
2023-04-18T11:18:47.082Z,8.57
2023-04-18T11:23:18.425Z,8.90
2023-04-18T11:27:43.982Z,9.02
2023-04-18T11:32:10.273Z,9.13
2023-04-18T11:36:38.819Z,9.40
2023-04-18T11:41:04.085Z,8.90
2023-04-18T11:45:32.287Z,9.60
2023-04-18T11:50:02.753Z,9.52
2023-04-18T11:54:41.175Z,9.75
2023-04-18T11:59:13.748Z,9.23
2023-04-18T12:03:41.187Z,10.03
2023-04-18T12:08:15.631Z,9.20
2023-04-18T12:12:51.094Z,10.38
2023-04-18T12:17:21.194Z,9.67
2023-04-18T12:22:01.425Z,9.65
2023-04-18T12:26:23.741Z,10.43
2023-04-18T12:30:48.013Z,9.97
2023-04-18T12:35:14.094Z,10.43
2023-04-18T12:39:41.101Z,9.82
2023-04-18T12:44:10.080Z,9.50
2023-04-18T12:48:45.029Z,9.87
2023-04-18T12:53:12.104Z,9.98
2023-04-18T12:57:36.433Z,10.50
2023-04-18T13:02:01.838Z,10.50
2023-04-18T13:06:28.889Z,10.20
2023-04-18T13:10:57.521Z,9.93
2023-04-18T13:15:24.916Z,9.77
2023-04-18T13:19:51.193Z,10.05
2023-04-18T13:24:32.275Z,10.55
2023-04-18T13:28:56.491Z,10.65
2023-04-18T13:33:33.808Z,9.23
2023-04-18T13:37:59.521Z,10.07
2023-04-18T13:42:37.512Z,10.05
2023-04-18T13:47:03.638Z,10.17
2023-04-18T13:51:27.853Z,10.00
2023-04-18T13:56:03.638Z,10.95
2023-04-18T14:00:27.901Z,10.30
2023-04-18T14:04:52.371Z,8.82
2023-04-18T14:09:17.124Z,10.25
2023-04-18T14:13:42.439Z,10.48
2023-04-18T14:18:06.570Z,10.57
2023-04-18T14:22:30.790Z,9.88
2023-04-18T14:26:54.895Z,10.00
2023-04-18T14:31:24.857Z,10.93
2023-04-18T14:35:52.988Z,9.85
2023-04-18T14:40:20.401Z,9.60
2023-04-18T14:44:44.614Z,9.73
2023-04-18T14:49:10.114Z,10.02
2023-04-18T14:53:39.474Z,9.43
2023-04-18T14:58:05.183Z,9.88
2023-04-18T15:02:33.597Z,9.37
2023-04-18T15:07:00.163Z,9.55
2023-04-18T15:11:27.135Z,9.43
2023-04-18T15:15:53.262Z,10.30
2023-04-18T15:20:22.529Z,10.55
2023-04-18T15:24:49.337Z,10.00
2023-04-18T15:29:13.257Z,11.10
2023-04-18T15:33:37.176Z,11.07
2023-04-18T15:38:01.176Z,11.02
2023-04-18T15:42:26.692Z,10.40
2023-04-18T15:46:51.017Z,10.23
2023-04-18T15:51:15.187Z,10.63
2023-04-18T15:55:39.190Z,11.05
2023-04-18T16:00:10.160Z,11.30
2023-04-18T16:04:34.757Z,10.57
2023-04-18T16:08:58.780Z,11.77
2023-04-18T16:13:22.776Z,11.17
2023-04-18T16:17:48.641Z,11.07
2023-04-18T16:22:12.633Z,11.35
2023-04-18T16:26:36.426Z,11.48
2023-04-18T16:31:00.352Z,10.80
2023-04-18T16:35:26.607Z,10.32
2023-04-18T16:39:51.152Z,10.23
2023-04-18T16:44:15.168Z,11.23
2023-04-18T16:48:39.421Z,10.82
2023-04-18T16:53:08.015Z,11.00
2023-04-18T16:57:31.937Z,11.73
2023-04-18T17:01:58.508Z,10.27
2023-04-18T17:06:24.937Z,10.63
2023-04-18T17:10:52.893Z,10.63
2023-04-18T17:15:19.729Z,10.70
2023-04-18T17:19:43.752Z,10.95
2023-04-18T17:24:08.150Z,11.18
2023-04-18T17:28:33.256Z,10.47
2023-04-18T17:32:57.548Z,10.95
2023-04-18T17:37:24.207Z,10.60
2023-04-18T17:41:48.236Z,10.93
2023-04-18T17:46:14.224Z,11.10
2023-04-18T17:50:38.562Z,10.70
2023-04-18T17:55:02.630Z,10.75
2023-04-18T17:59:27.893Z,10.17
2023-04-18T18:03:54.106Z,11.38
2023-04-18T18:08:18.350Z,9.88
2023-04-18T18:12:38.223Z,10.23
2023-04-18T18:16:57.842Z,9.80
2023-04-18T18:21:17.078Z,9.43
2023-04-18T18:25:41.646Z,10.53
2023-04-18T18:30:06.781Z,9.70
2023-04-18T18:34:31.972Z,10.68
2023-04-18T18:38:57.411Z,9.35
2023-04-18T18:43:22.814Z,9.50
2023-04-18T18:47:46.795Z,9.75
2023-04-18T18:52:13.497Z,10.13
2023-04-18T18:56:40.134Z,9.43
2023-04-18T19:01:05.922Z,10.13
2023-04-18T19:05:29.975Z,10.45
2023-04-18T19:09:57.754Z,10.00
2023-04-18T19:14:23.336Z,10.25
2023-04-18T19:18:49.162Z,11.27
2023-04-18T19:23:13.216Z,9.60
2023-04-18T19:27:37.412Z,10.20
2023-04-18T19:32:04.262Z,10.63
2023-04-18T19:36:28.344Z,10.75
2023-04-18T19:40:52.425Z,10.60
2023-04-18T19:45:16.305Z,11.07
2023-04-18T19:49:42.234Z,9.23
2023-04-18T19:54:09.602Z,10.53
2023-04-18T19:58:38.743Z,9.70
2023-04-18T20:03:03.182Z,10.35
2023-04-18T20:07:28.584Z,10.60
2023-04-18T20:11:54.324Z,10.40
2023-04-18T20:16:18.182Z,11.57
2023-04-18T20:20:42.433Z,11.15
2023-04-18T20:25:08.941Z,12.13
2023-04-18T20:29:33.007Z,10.90
2023-04-18T20:33:57.078Z,11.60
2023-04-18T20:38:26.022Z,11.20
2023-04-18T20:42:54.483Z,10.82
2023-04-18T20:47:18.747Z,11.57
2023-04-18T20:51:42.889Z,11.38
2023-04-18T20:56:07.656Z,10.73
2023-04-18T21:00:33.416Z,9.95
2023-04-18T21:04:59.635Z,10.02
2023-04-18T21:09:24.346Z,11.30
2023-04-18T21:13:48.204Z,10.48
2023-04-18T21:18:13.481Z,9.52
2023-04-18T21:22:39.229Z,10.20
2023-04-18T21:27:05.472Z,9.35
2023-04-18T21:31:31.675Z,9.30
2023-04-18T21:35:57.111Z,8.75
2023-04-18T21:40:21.287Z,8.23
2023-04-18T21:44:45.303Z,8.50
2023-04-18T21:49:09.544Z,7.57
2023-04-18T21:53:35.099Z,7.33
2023-04-18T21:57:59.024Z,6.55
2023-04-18T22:02:22.969Z,7.13
2023-04-18T22:06:47.062Z,5.67
2023-04-18T22:11:13.658Z,5.05
2023-04-18T22:15:39.432Z,5.13
2023-04-18T22:20:04.696Z,4.72
2023-04-18T22:24:28.666Z,4.53
2023-04-18T22:28:53.936Z,4.25
2023-04-18T22:33:20.440Z,4.32
2023-04-18T22:37:44.360Z,4.57
2023-04-18T22:42:08.560Z,4.35
2023-04-18T22:46:34.030Z,4.65
2023-04-18T22:51:01.772Z,4.60
2023-04-18T22:55:26.044Z,4.20
2023-04-18T22:59:49.993Z,4.20
2023-04-18T23:04:15.630Z,4.75
2023-04-18T23:08:40.684Z,4.40
2023-04-18T23:13:04.772Z,4.68
2023-04-18T23:17:29.132Z,3.85
2023-04-18T23:21:54.446Z,4.77
2023-04-18T23:26:18.418Z,4.25
2023-04-18T23:30:42.675Z,4.65
2023-04-18T23:35:06.875Z,4.50
2023-04-18T23:39:32.312Z,4.05
2023-04-18T23:43:54.793Z,4.40
2023-04-18T23:48:18.979Z,4.13
2023-04-18T23:52:43.067Z,4.30
2023-04-18T23:57:08.896Z,4.22
